Time;durP1;ratioP1;P1;durP2;ratioP2;P2;SDS_P1;SDS_P2;PMS_P1;PMS_P2;Temp;Humidity;BMP_temperature;BMP_pressure;BME280_temperature;BME280_humidity;BME280_pressure;Samples;Min_cycle;Max_cycle;Signal;HPM_P1;HPM_P2
2022/09/19 00:01:48;;;;;;;3.78;2.00;;;;;;;9.67;58.25;95546.38;5009492;28;20111;-79
2022/09/19 00:04:19;;;;;;;3.30;2.00;;;;;;;9.61;57.93;95543.38;5011234;28;20025;-78
2022/09/19 00:06:45;;;;;;;2.83;2.10;;;;;;;9.55;57.53;95551.22;5026394;28;20082;-79
2022/09/19 00:09:12;;;;;;;4.13;2.20;;;;;;;9.44;56.96;95542.53;5026755;28;20562;-79
2022/09/19 00:11:39;;;;;;;4.40;2.13;;;;;;;9.38;57.24;95543.22;5010931;28;20091;-79
2022/09/19 00:14:05;;;;;;;3.97;2.30;;;;;;;9.24;57.92;95540.19;5027253;28;20036;-78
2022/09/19 00:16:32;;;;;;;3.75;2.25;;;;;;;9.17;58.72;95531.16;5011046;28;20025;-79
2022/09/19 00:18:59;;;;;;;3.53;2.05;;;;;;;9.13;58.31;95537.81;5025497;28;20479;-78
2022/09/19 00:21:25;;;;;;;7.07;2.38;;;;;;;9.08;59.09;95527.63;5010789;28;20068;-79
2022/09/19 00:26:35;;;;;;;4.00;2.00;;;;;;;8.96;58.79;95527.13;5027550;28;20047;-79
2022/09/19 00:29:01;;;;;;;3.72;2.20;;;;;;;8.92;59.24;95528.44;5027878;28;20022;-79
2022/09/19 00:31:27;;;;;;;3.42;2.10;;;;;;;8.87;59.34;95528.94;5025489;28;20033;-79
2022/09/19 00:33:53;;;;;;;3.75;2.50;;;;;;;8.85;60.10;95535.47;5010250;28;20448;-78
2022/09/19 00:36:19;;;;;;;3.85;2.38;;;;;;;8.75;59.76;95533.75;5008874;28;20025;-78
2022/09/19 00:38:44;;;;;;;4.57;2.03;;;;;;;8.73;60.24;95541.09;5026929;28;20527;-79
2022/09/19 00:41:19;;;;;;;3.65;2.25;;;;;;;8.67;60.06;95531.06;5024817;28;20025;-79
2022/09/19 00:43:51;;;;;;;3.28;2.25;;;;;;;8.66;59.54;95540.06;5027505;28;20025;-78
2022/09/19 00:46:18;;;;;;;4.10;2.38;;;;;;;8.63;59.81;95537.72;5027600;28;20044;-79
2022/09/19 00:48:45;;;;;;;3.47;2.10;;;;;;;8.59;59.91;95537.19;5025007;28;20044;-79
2022/09/19 00:51:31;;;;;;;3.17;2.20;;;;;;;8.65;60.43;95549.09;5026347;28;20038;-79
2022/09/19 00:53:57;;;;;;;4.18;2.38;;;;;;;8.66;60.59;95545.41;5024847;28;20029;-78
2022/09/19 00:56:23;;;;;;;6.40;2.50;;;;;;;8.69;61.41;95539.75;5026312;28;20029;-78
2022/09/19 00:58:48;;;;;;;6.65;2.65;;;;;;;8.75;59.85;95536.41;5009434;28;20028;-78
2022/09/19 01:01:14;;;;;;;3.90;2.72;;;;;;;8.72;59.48;95525.22;5008742;28;20029;-79
2022/09/19 01:03:40;;;;;;;4.15;2.70;;;;;;;8.74;58.75;95525.88;5025975;28;20030;-78
2022/09/19 01:06:27;;;;;;;3.20;2.30;;;;;;;8.81;58.61;95521.56;5025860;28;20044;-78
2022/09/19 01:09:02;;;;;;;6.80;2.33;;;;;;;8.81;58.74;95521.56;5027545;28;20033;-79
2022/09/19 01:11:45;;;;;;;4.00;2.55;;;;;;;8.81;58.79;95540.28;5026133;28;20033;-80
2022/09/19 01:14:29;;;;;;;3.88;2.40;;;;;;;8.74;59.24;95526.72;5025006;28;20112;-79
2022/09/19 01:17:05;;;;;;;4.05;2.63;;;;;;;8.65;59.70;95519.69;5010332;28;20044;-79
2022/09/19 01:19:46;;;;;;;3.50;2.40;;;;;;;8.68;59.44;95521.19;5009110;28;20044;-78
2022/09/19 01:22:17;;;;;;;3.38;2.40;;;;;;;8.69;59.14;95522.88;5025925;28;20033;-79
2022/09/19 01:24:47;;;;;;;2.78;2.20;;;;;;;8.69;58.96;95521.03;5026551;28;20033;-79
2022/09/19 01:27:19;;;;;;;5.38;2.45;;;;;;;8.69;58.33;95521.03;5008352;28;20123;-79
2022/09/19 01:29:49;;;;;;;5.15;2.10;;;;;;;8.67;58.34;95524.88;5025847;28;20529;-78
2022/09/19 01:32:18;;;;;;;3.58;2.20;;;;;;;8.66;58.43;95518.69;5007718;28;20120;-79
2022/09/19 01:34:46;;;;;;;3.05;2.42;;;;;;;8.60;58.00;95516.66;5009771;28;20033;-78
2022/09/19 01:37:34;;;;;;;3.22;2.00;;;;;;;8.50;58.29;95520.28;5007674;28;20021;-78
2022/09/19 01:40:02;;;;;;;4.60;2.10;;;;;;;8.43;58.39;95518.41;5009297;28;20033;-79
2022/09/19 01:42:27;;;;;;;5.20;2.45;;;;;;;8.40;58.12;95527.56;4992275;28;20025;-79
2022/09/19 01:44:53;;;;;;;3.92;2.22;;;;;;;8.29;58.39;95520.69;5025877;28;20017;-79
2022/09/19 01:47:49;;;;;;;3.33;2.03;;;;;;;8.27;58.79;95522.72;5025458;28;20194;-79
2022/09/19 01:50:17;;;;;;;6.00;3.55;;;;;;;8.25;58.13;95517.50;5023990;28;20115;-79
2022/09/19 01:53:01;;;;;;;3.15;2.15;;;;;;;8.25;57.87;95519.34;5024706;28;20026;-78
2022/09/19 01:55:40;;;;;;;2.90;2.05;;;;;;;8.23;58.27;95514.16;5025153;28;20025;-79
2022/09/19 01:58:12;;;;;;;3.83;2.00;;;;;;;8.21;58.72;95508.13;5023833;28;20029;-79
2022/09/19 02:01:06;;;;;;;7.67;2.30;;;;;;;8.21;59.27;95509.97;5025381;28;20037;-79
2022/09/19 02:03:45;;;;;;;6.38;2.25;;;;;;;8.21;59.09;95508.13;5021538;28;20311;-79
2022/09/19 02:06:26;;;;;;;3.58;2.30;;;;;;;8.18;59.30;95511.13;5009101;28;20059;-78
2022/09/19 02:08:58;;;;;;;3.42;2.00;;;;;;;8.08;60.23;95505.91;5025620;28;20029;-78
2022/09/19 02:11:24;;;;;;;5.18;2.45;;;;;;;8.10;59.18;95505.75;5007215;28;20057;-78
2022/09/19 02:13:56;;;;;;;3.58;2.22;;;;;;;8.12;59.49;95504.59;4992783;28;20152;-78
2022/09/19 02:16:30;;;;;;;4.47;2.30;;;;;;;8.13;58.84;95502.75;5007107;28;20182;-78
2022/09/19 02:19:01;;;;;;;4.18;2.22;;;;;;;8.06;58.53;95497.19;5009154;28;20154;-78
2022/09/19 02:21:36;;;;;;;3.08;2.25;;;;;;;8.02;59.04;95502.06;5024298;28;20109;-78
2022/09/19 02:24:06;;;;;;;5.32;2.20;;;;;;;8.01;59.12;95499.53;5007811;28;20029;-78
2022/09/19 02:26:31;;;;;;;4.10;2.33;;;;;;;7.94;59.91;95498.47;5009146;28;20041;-78
2022/09/19 02:28:57;;;;;;;5.60;2.45;;;;;;;7.88;59.03;95489.28;5006961;28;20033;-78
2022/09/19 02:31:26;;;;;;;5.63;2.20;;;;;;;7.86;58.95;95496.63;5008645;28;20026;-78
2022/09/19 02:33:52;;;;;;;5.55;2.47;;;;;;;7.82;59.93;95489.94;5008139;28;20029;-78
2022/09/19 02:36:24;;;;;;;3.47;2.15;;;;;;;7.84;60.25;95490.59;5007948;28;20120;-79
2022/09/19 02:39:02;;;;;;;6.63;2.38;;;;;;;7.88;60.39;95489.28;5008703;28;20495;-79
2022/09/19 02:41:42;;;;;;;8.40;2.40;;;;;;;7.88;60.02;95487.44;5024371;28;20083;-79
2022/09/19 02:44:24;;;;;;;5.47;2.42;;;;;;;7.80;58.98;95492.75;5010118;28;20026;-77
2022/09/19 02:47:02;;;;;;;6.20;2.65;;;;;;;7.77;59.02;95493.06;5023616;28;20025;-78
2022/09/19 02:49:49;;;;;;;4.32;2.67;;;;;;;7.75;59.45;95493.22;5025160;28;20033;-79
2022/09/19 02:52:32;;;;;;;6.15;3.05;;;;;;;7.73;59.66;95500.56;5008975;28;20094;-79
2022/09/19 02:55:03;;;;;;;;;;;;;;;7.67;60.04;95499.34;4991891;28;20428;-80
2022/09/19 02:57:29;;;;;;;4.15;2.30;;;;;;;7.61;59.58;95501.81;5025033;28;19913;-78
2022/09/19 02:59:58;;;;;;;7.57;2.38;;;;;;;7.52;59.08;95501.75;5007425;28;20029;-78
2022/09/19 03:02:38;;;;;;;3.03;2.30;;;;;;;7.45;59.69;95503.34;5008400;28;20053;-78
2022/09/19 03:05:07;;;;;;;4.10;2.20;;;;;;;7.44;60.02;95503.50;5024616;28;20370;-78
2022/09/19 03:08:03;;;;;;;4.47;2.20;;;;;;;7.36;60.06;95498.97;5022984;28;20106;-80
2022/09/19 03:10:31;;;;;;;3.83;2.33;;;;;;;7.26;60.13;95497.22;5020638;28;20172;-78
2022/09/19 03:13:02;;;;;;;4.13;2.47;;;;;;;7.21;60.54;95504.00;5023588;28;20022;-78
2022/09/19 03:15:40;;;;;;;4.90;2.40;;;;;;;7.20;60.62;95500.50;5007849;28;20104;-77
2022/09/19 03:18:08;;;;;;;5.70;2.67;;;;;;;7.16;60.84;95493.78;5009053;28;20026;-79
2022/09/19 03:20:38;;;;;;;3.97;2.13;;;;;;;7.13;60.74;95496.78;5007018;28;20041;-78
2022/09/19 03:23:07;;;;;;;4.95;2.45;;;;;;;7.11;60.82;95496.94;5024879;28;20482;-78
2022/09/19 03:25:33;;;;;;;6.18;2.65;;;;;;;7.16;60.74;95496.47;5022851;28;20021;-78
2022/09/19 03:27:58;;;;;;;2.72;2.10;;;;;;;7.24;60.00;95483.19;5024384;28;20993;-78
2022/09/19 03:30:24;;;;;;;6.47;2.75;;;;;;;7.22;59.31;95495.03;5024152;28;20396;-79
2022/09/19 03:32:50;;;;;;;5.50;2.47;;;;;;;7.18;60.23;95494.50;5007778;28;20437;-78
2022/09/19 03:35:15;;;;;;;5.63;2.65;;;;;;;7.26;59.80;95491.03;5025822;28;20022;-78
2022/09/19 03:37:41;;;;;;;6.03;2.70;;;;;;;7.25;59.64;95474.22;5024760;28;20576;-78
2022/09/19 03:40:07;;;;;;;6.20;3.25;;;;;;;7.30;59.84;95487.91;5024684;28;20025;-78
2022/09/19 03:42:34;;;;;;;6.20;2.85;;;;;;;7.25;60.52;95482.22;5024102;28;20105;-78
2022/09/19 03:45:00;;;;;;;5.28;3.05;;;;;;;7.26;60.24;95478.56;5008400;28;20052;-79
2022/09/19 03:47:26;;;;;;;8.93;3.97;;;;;;;7.27;60.25;95476.72;5006357;28;20535;-78
2022/09/19 03:49:51;;;;;;;5.10;2.67;;;;;;;7.22;60.13;95481.69;5025486;28;20026;-78
2022/09/19 03:52:17;;;;;;;5.15;2.85;;;;;;;7.25;60.79;95474.22;5024240;28;20420;-79
2022/09/19 03:54:44;;;;;;;4.38;2.83;;;;;;;7.23;60.50;95470.84;5025073;28;20393;-79
2022/09/19 03:57:10;;;;;;;6.18;2.70;;;;;;;7.19;60.20;95466.00;5023685;28;20021;-78
2022/09/19 03:59:38;;;;;;;5.68;2.63;;;;;;;7.19;60.36;95464.16;5022966;28;20044;-78
2022/09/19 04:02:04;;;;;;;4.75;3.03;;;;;;;7.19;60.56;95464.16;5025660;28;20021;-78
2022/09/19 04:04:29;;;;;;;6.20;2.88;;;;;;;7.15;60.59;95462.78;4989561;28;20140;-78
2022/09/19 04:06:55;;;;;;;7.07;2.88;;;;;;;7.11;60.58;95456.91;5025304;28;20024;-78
2022/09/19 04:09:20;;;;;;;8.90;2.97;;;;;;;7.12;60.85;95463.94;5023851;28;20053;-78
2022/09/19 04:11:46;;;;;;;4.18;2.58;;;;;;;7.04;60.99;95462.03;5007456;28;20030;-78
2022/09/19 04:14:12;;;;;;;6.25;3.08;;;;;;;7.14;61.22;95458.47;5024425;28;20044;-78
2022/09/19 04:16:38;;;;;;;5.95;3.33;;;;;;;7.17;60.82;95456.28;5026103;28;20022;-77
2022/09/19 04:19:09;;;;;;;6.38;2.95;;;;;;;7.21;60.72;95467.50;5028384;28;20477;-79
2022/09/19 04:21:35;;;;;;;10.45;3.75;;;;;;;7.27;60.35;95466.88;5026912;28;20183;-79
2022/09/19 04:24:00;;;;;;;5.78;3.15;;;;;;;7.33;60.21;95464.59;5027419;28;20049;-79
2022/09/19 04:26:26;;;;;;;5.07;3.03;;;;;;;7.41;60.14;95467.31;5009283;28;20042;-79
2022/09/19 04:28:51;;;;;;;6.50;3.22;;;;;;;7.41;60.48;95468.16;5027396;28;20025;-78
2022/09/19 04:31:17;;;;;;;6.85;3.25;;;;;;;7.44;60.39;95467.00;5014736;28;20038;-78
2022/09/19 04:33:42;;;;;;;8.57;3.72;;;;;;;7.53;60.51;95460.72;5028141;28;20037;-78
2022/09/19 04:36:08;;;;;;;8.30;3.72;;;;;;;7.57;59.87;95461.25;5028052;28;20436;-79
2022/09/19 04:38:34;;;;;;;7.18;3.88;;;;;;;7.60;59.90;95466.28;5025707;28;20436;-78
2022/09/19 04:41:01;;;;;;;11.15;3.70;;;;;;;7.62;59.73;95476.78;5027199;28;20033;-78
2022/09/19 04:43:27;;;;;;;5.63;3.70;;;;;;;7.59;60.36;95463.75;5025349;28;20052;-78
2022/09/19 04:45:56;;;;;;;9.55;3.85;;;;;;;7.67;60.56;95455.81;5010723;28;20049;-79
2022/09/19 04:48:21;;;;;;;5.72;3.63;;;;;;;7.68;59.76;95462.81;5008958;28;20026;-79
2022/09/19 04:50:51;;;;;;;11.82;4.25;;;;;;;7.70;59.10;95459.97;5026625;28;20095;-78
2022/09/19 04:53:20;;;;;;;8.82;3.83;;;;;;;7.75;59.36;95463.03;5025680;28;20095;-78
2022/09/19 04:55:48;;;;;;;11.80;4.63;;;;;;;7.76;59.65;95470.88;5025699;28;20029;-79
2022/09/19 04:58:15;;;;;;;11.25;3.72;;;;;;;7.88;60.15;95466.06;5010367;28;20036;-79
2022/09/19 05:00:41;;;;;;;11.57;4.47;;;;;;;8.04;59.59;95470.66;5026451;28;20025;-79
2022/09/19 05:03:11;;;;;;;9.05;4.35;;;;;;;8.12;59.02;95477.88;5027816;28;20473;-79
2022/09/19 05:05:38;;;;;;;21.20;4.68;;;;;;;8.05;59.43;95474.16;5026097;28;20057;-79
2022/09/19 05:08:04;;;;;;;20.38;4.55;;;;;;;8.14;59.49;95480.41;5027443;28;20498;-78
2022/09/19 05:10:32;;;;;;;22.67;4.30;;;;;;;8.31;59.30;95480.44;5024999;28;20040;-79
2022/09/19 05:12:59;;;;;;;11.63;3.97;;;;;;;8.45;58.58;95479.00;5026624;28;20025;-79
2022/09/19 05:15:25;;;;;;;14.45;4.10;;;;;;;8.53;57.35;95482.53;5026255;28;20434;-79
2022/09/19 05:17:53;;;;;;;5.57;3.85;;;;;;;8.64;57.59;95485.94;5025923;28;20032;-79
2022/09/19 05:20:19;;;;;;;8.10;3.72;;;;;;;8.77;57.40;95486.28;5026185;28;20032;-79
2022/09/19 05:22:45;;;;;;;4.80;2.80;;;;;;;8.87;57.33;95488.81;5024341;28;20158;-78
2022/09/19 05:25:15;;;;;;;8.68;3.97;;;;;;;9.03;57.24;95493.34;5027192;28;20037;-78
2022/09/19 05:27:41;;;;;;;8.00;3.65;;;;;;;9.14;57.41;95486.00;5023530;28;20508;-78
2022/09/19 05:30:07;;;;;;;10.38;3.40;;;;;;;9.24;57.09;95484.00;5026765;28;20033;-78
2022/09/19 05:32:34;;;;;;;6.20;3.30;;;;;;;9.35;57.40;95474.78;5025396;28;20040;-79
2022/09/19 05:35:00;;;;;;;11.25;3.17;;;;;;;9.50;57.25;95484.81;5024016;28;20030;-78
2022/09/19 05:37:26;;;;;;;7.90;3.42;;;;;;;9.58;57.14;95490.16;5027200;28;20366;-78
2022/09/19 05:39:52;;;;;;;8.00;3.13;;;;;;;9.66;57.02;95486.63;5023771;28;20116;-78
2022/09/19 05:42:18;;;;;;;8.40;3.20;;;;;;;9.65;56.54;95484.97;5026559;28;20117;-78
2022/09/19 05:44:43;;;;;;;7.28;4.25;;;;;;;9.59;57.47;95485.66;5023608;28;20484;-79
2022/09/19 05:47:09;;;;;;;8.35;3.53;;;;;;;9.66;57.38;95489.31;5008452;28;20105;-78
2022/09/19 05:49:35;;;;;;;11.07;3.78;;;;;;;9.53;58.03;95487.13;5025246;28;20033;-78
2022/09/19 05:53:52;;;;;;;12.43;3.60;;;;;;;9.67;57.81;95482.97;5025742;28;20048;-78
2022/09/19 05:54:46;;;;;;;7.78;3.65;;;;;;;9.85;57.56;95489.97;5026622;28;20033;-78
2022/09/19 05:57:12;;;;;;;5.18;3.10;;;;;;;10.08;57.34;95490.03;5024447;28;20092;-79
2022/09/19 05:59:38;;;;;;;5.82;3.55;;;;;;;10.28;57.21;95481.59;5026288;28;20025;-78
2022/09/19 06:02:05;;;;;;;7.55;3.90;;;;;;;10.45;56.75;95484.19;5024828;28;20515;-79
2022/09/19 06:04:30;;;;;;;8.18;3.05;;;;;;;10.67;55.84;95492.50;5024638;28;20499;-78
2022/09/19 06:06:56;;;;;;;6.75;3.22;;;;;;;10.77;55.27;95487.75;5024335;28;20154;-79
2022/09/19 06:09:21;;;;;;;8.23;2.97;;;;;;;10.93;55.14;95481.44;5025210;28;20451;-78
2022/09/19 06:11:47;;;;;;;9.88;2.90;;;;;;;11.06;55.05;95482.72;5007914;28;20126;-79
2022/09/19 06:14:15;;;;;;;4.38;2.75;;;;;;;11.11;54.90;95483.00;5024313;28;20033;-78
2022/09/19 06:16:41;;;;;;;6.65;3.08;;;;;;;11.00;55.23;95484.25;5025027;28;20105;-79
2022/09/19 06:19:07;;;;;;;8.75;3.40;;;;;;;10.98;55.88;95486.28;4990736;28;20064;-79
2022/09/19 06:21:33;;;;;;;11.52;3.55;;;;;;;11.21;55.53;95490.81;5008182;28;20108;-79
2022/09/19 06:23:58;;;;;;;11.75;3.78;;;;;;;11.21;55.77;95480.91;5006916;28;20436;-79
2022/09/19 06:26:24;;;;;;;7.28;3.80;;;;;;;11.38;55.67;95486.16;5007667;28;20060;-79
2022/09/19 06:28:51;;;;;;;8.60;3.50;;;;;;;11.45;55.12;95484.41;5025056;28;20368;-79
2022/09/19 06:31:17;;;;;;;12.70;3.72;;;;;;;11.48;54.32;95467.94;5023435;28;20021;-79
2022/09/19 06:33:42;;;;;;;6.18;3.38;;;;;;;11.72;54.47;95482.16;5024947;28;20037;-78
2022/09/19 06:36:08;;;;;;;7.88;3.83;;;;;;;11.85;54.50;95484.19;5023912;28;20025;-78
2022/09/19 06:38:35;;;;;;;8.95;3.85;;;;;;;11.70;54.30;95486.84;5025096;28;20033;-78
2022/09/19 06:41:00;;;;;;;13.50;4.55;;;;;;;11.44;54.60;95488.13;5023042;28;20025;-78
2022/09/19 06:43:26;;;;;;;9.82;4.00;;;;;;;11.43;55.58;95489.13;5024182;28;20029;-79
2022/09/19 06:45:52;;;;;;;10.88;4.53;;;;;;;11.38;55.96;95473.56;5024678;28;20030;-79
2022/09/19 06:48:17;;;;;;;10.60;3.97;;;;;;;11.33;55.88;95475.13;4991038;28;20029;-79
2022/09/19 06:50:46;;;;;;;7.35;3.90;;;;;;;11.28;56.38;95472.97;5024126;28;20035;-79
2022/09/19 06:53:12;;;;;;;13.55;4.80;;;;;;;11.59;55.47;95469.34;5023852;28;20025;-79
2022/09/19 06:55:37;;;;;;;10.70;4.35;;;;;;;11.84;55.23;95469.09;4992058;28;20026;-79
2022/09/19 06:58:04;;;;;;;6.40;4.03;;;;;;;12.04;55.45;95475.78;5023855;28;20033;-79
2022/09/19 07:00:32;;;;;;;9.65;3.83;;;;;;;12.26;55.29;95474.03;5025556;28;20365;-79
2022/09/19 07:03:00;;;;;;;12.82;4.10;;;;;;;12.42;55.04;95472.16;5024259;28;20064;-79
2022/09/19 07:05:32;;;;;;;13.85;4.20;;;;;;;12.48;54.29;95472.25;5023952;28;20029;-79
2022/09/19 07:07:58;;;;;;;12.23;3.92;;;;;;;12.70;53.52;95466.09;5023894;28;20025;-80
2022/09/19 07:10:23;;;;;;;14.07;4.93;;;;;;;12.88;53.29;95462.16;5023096;28;20021;-80
2022/09/19 07:12:53;;;;;;;10.23;3.60;;;;;;;12.99;52.80;95456.25;5024266;28;20514;-79
2022/09/19 07:15:18;;;;;;;14.32;3.67;;;;;;;13.11;51.79;95464.66;5022908;28;20033;-79
2022/09/19 07:17:44;;;;;;;16.30;3.60;;;;;;;13.24;50.42;95469.34;5024657;28;20344;-80
2022/09/19 07:20:09;;;;;;;9.52;3.53;;;;;;;13.18;50.95;95468.25;5024540;28;20378;-80
2022/09/19 07:22:37;;;;;;;8.00;3.30;;;;;;;13.34;50.20;95460.94;5007653;28;20037;-81
2022/09/19 07:25:03;;;;;;;9.57;3.70;;;;;;;13.45;50.92;95465.78;5023612;28;20284;-79
2022/09/19 07:27:30;;;;;;;13.35;4.57;;;;;;;13.44;50.20;95449.81;5023050;28;20131;-78
2022/09/19 07:29:55;;;;;;;11.13;3.80;;;;;;;13.47;50.48;95452.97;5025420;28;20025;-79
2022/09/19 07:32:21;;;;;;;13.00;4.25;;;;;;;13.54;50.56;95446.84;5022082;28;20512;-79
2022/09/19 07:34:46;;;;;;;13.00;4.57;;;;;;;13.67;50.30;95446.91;5025432;28;20437;-79
2022/09/19 07:37:11;;;;;;;10.23;3.63;;;;;;;13.76;49.05;95439.53;5021961;28;20036;-79
2022/09/19 07:39:37;;;;;;;11.27;4.43;;;;;;;13.67;49.43;95451.50;5007562;28;20025;-79
2022/09/19 07:42:02;;;;;;;14.45;3.72;;;;;;;13.59;49.56;95449.75;5023665;28;20022;-78
2022/09/19 07:44:28;;;;;;;9.52;3.58;;;;;;;13.59;49.66;95445.19;5023603;28;20443;-80
2022/09/19 07:49:37;;;;;;;8.50;3.45;;;;;;;13.71;49.15;95437.41;5023718;28;20056;-80
2022/09/19 07:52:03;;;;;;;5.63;2.40;;;;;;;14.00;47.85;95444.63;5028993;28;20404;-79
2022/09/19 07:54:28;;;;;;;5.70;2.45;;;;;;;14.18;48.02;95438.72;5026783;28;20463;-80
2022/09/19 07:56:54;;;;;;;5.80;2.08;;;;;;;14.32;45.58;95434.22;5027726;28;20029;-81
2022/09/19 07:59:19;;;;;;;3.08;1.60;;;;;;;14.18;45.58;95430.63;5009587;28;20029;-79
2022/09/19 08:01:44;;;;;;;4.30;1.90;;;;;;;14.17;45.87;95426.28;5027231;28;20109;-79
2022/09/19 08:04:10;;;;;;;4.85;1.65;;;;;;;14.09;46.39;95421.88;5028092;28;20412;-79
2022/09/19 08:06:36;;;;;;;3.60;1.58;;;;;;;13.94;46.22;95422.84;5026077;28;20568;-80
2022/09/19 08:09:02;;;;;;;3.60;2.00;;;;;;;14.13;46.25;95428.53;5010517;28;20053;-78
2022/09/19 08:11:27;;;;;;;4.72;2.20;;;;;;;14.12;46.22;95426.88;5026233;28;20108;-80
2022/09/19 08:13:53;;;;;;;2.90;2.03;;;;;;;14.26;46.60;95424.25;5028936;28;20450;-79
2022/09/19 08:16:19;;;;;;;4.68;2.28;;;;;;;14.23;46.19;95412.00;5026359;28;20527;-79
2022/09/19 08:18:44;;;;;;;4.65;2.10;;;;;;;14.54;45.46;95401.72;5027387;28;20040;-80
2022/09/19 08:21:10;;;;;;;3.50;1.85;;;;;;;14.56;44.10;95407.75;5027329;28;20033;-80
2022/09/19 08:23:36;;;;;;;6.50;1.75;;;;;;;14.56;44.11;95413.13;5026304;28;20037;-79
2022/09/19 08:26:03;;;;;;;3.80;1.83;;;;;;;14.45;44.74;95414.56;5010364;28;20103;-79
2022/09/19 08:28:30;;;;;;;5.60;1.95;;;;;;;14.59;44.98;95410.03;5009369;28;20053;-78
2022/09/19 08:30:59;;;;;;;3.40;1.80;;;;;;;14.49;45.43;95409.59;5028666;28;20091;-79
2022/09/19 08:33:25;;;;;;;3.20;1.67;;;;;;;14.55;44.63;95406.09;5024884;28;20022;-79
2022/09/19 08:35:52;;;;;;;2.75;1.45;;;;;;;14.61;45.16;95401.72;5010848;28;20492;-80
2022/09/19 08:38:17;;;;;;;6.55;1.48;;;;;;;14.81;45.95;95399.13;5008832;28;20492;-80
2022/09/19 08:40:51;;;;;;;5.70;1.67;;;;;;;14.85;45.00;95403.06;5026855;28;20030;-79
2022/09/19 08:43:38;;;;;;;4.55;1.60;;;;;;;14.82;45.71;95403.47;5025986;28;20103;-80
2022/09/19 08:46:47;;;;;;;5.72;1.77;;;;;;;14.81;46.37;95399.97;5026235;28;20696;-78
2022/09/19 08:49:35;;;;;;;3.53;1.95;;;;;;;15.00;46.56;95399.34;5025604;28;20041;-82
2022/09/19 08:52:22;;;;;;;5.10;1.90;;;;;;;15.23;46.05;95396.28;5026437;28;20033;-80
2022/09/19 08:54:49;;;;;;;3.13;1.75;;;;;;;15.38;44.21;95390.66;5024827;28;20033;-80
2022/09/19 08:57:48;;;;;;;6.28;1.90;;;;;;;15.45;43.94;95388.78;5010342;28;20022;-78
2022/09/19 09:00:18;;;;;;;4.22;2.00;;;;;;;15.58;43.63;95395.22;5020839;28;20072;-80
2022/09/19 09:02:46;;;;;;;6.90;2.25;;;;;;;15.54;43.43;95383.97;4992810;28;20025;-79
2022/09/19 09:05:17;;;;;;;3.78;1.90;;;;;;;15.55;45.39;95388.38;5026115;28;20030;-80
2022/09/19 09:07:58;;;;;;;8.30;2.40;;;;;;;15.06;45.98;95385.88;5008402;28;20507;-80
2022/09/19 09:10:45;;;;;;;5.05;2.10;;;;;;;15.10;45.49;95374.66;5026235;28;20063;-79
2022/09/19 09:13:36;;;;;;;6.07;2.30;;;;;;;14.52;47.49;95371.41;5026348;28;20113;-80
2022/09/19 09:17:12;;;;;;;4.50;1.85;;;;;;;14.65;46.85;95366.06;5025003;28;20087;-80
2022/09/19 09:19:37;;;;;;;4.60;1.90;;;;;;;14.41;47.34;95365.56;4970878;28;20536;-79
2022/09/19 09:22:25;;;;;;;5.82;2.10;;;;;;;14.81;47.61;95359.47;5023898;28;20472;-79
2022/09/19 09:25:12;;;;;;;4.00;1.88;;;;;;;15.34;47.21;95351.59;5021090;28;20061;-80
2022/09/19 09:28:05;;;;;;;6.75;2.25;;;;;;;15.92;43.19;95330.25;5010956;28;20071;-80
2022/09/19 09:30:31;;;;;;;5.80;2.20;;;;;;;15.98;43.08;95329.41;5009212;28;20366;-80
2022/09/19 09:33:06;;;;;;;3.20;1.83;;;;;;;16.15;44.18;95327.06;5008742;28;20523;-79
2022/09/19 09:35:39;;;;;;;4.07;1.80;;;;;;;16.24;43.03;95329.50;5010162;28;20032;-80
2022/09/19 09:38:24;;;;;;;9.80;2.13;;;;;;;15.96;42.84;95326.06;5023807;28;20030;-79
2022/09/19 09:43:45;;;;;;;5.07;2.20;;;;;;;15.54;42.08;95313.69;5024607;28;20063;-79
2022/09/19 09:46:13;;;;;;;8.05;2.15;;;;;;;15.27;43.24;95316.47;5008799;28;20017;-79
2022/09/19 09:48:39;;;;;;;6.20;2.40;;;;;;;15.50;43.15;95311.63;5026602;28;20033;-79
2022/09/19 09:51:20;;;;;;;9.65;2.83;;;;;;;15.73;43.40;95313.03;5023599;28;20029;-80
2022/09/19 09:54:00;;;;;;;6.30;2.03;;;;;;;16.16;44.02;95309.78;5025326;28;20021;-79
2022/09/19 09:56:41;;;;;;;4.95;2.08;;;;;;;16.50;42.58;95303.38;5025049;28;20044;-79
2022/09/19 10:05:36;;;;;;;7.68;2.60;;;;;;;16.17;42.18;95295.22;5026424;28;20035;-80
2022/09/19 10:08:16;;;;;;;5.75;1.88;;;;;;;16.43;43.14;95292.56;5008003;28;20477;-80
2022/09/19 10:10:42;;;;;;;4.75;2.05;;;;;;;16.43;41.85;95288.00;5026552;28;20358;-80
2022/09/19 10:13:17;;;;;;;3.90;1.70;;;;;;;16.06;41.84;95282.34;5006264;28;20502;-80
2022/09/19 10:15:54;;;;;;;5.72;2.45;;;;;;;16.59;43.28;95280.38;4992835;28;20175;-79
2022/09/19 10:18:21;;;;;;;5.95;2.00;;;;;;;16.85;42.03;95280.41;5008043;28;20032;-79
2022/09/19 10:20:49;;;;;;;8.75;2.10;;;;;;;16.76;41.21;95279.88;5008020;28;20094;-79
2022/09/19 10:23:21;;;;;;;6.85;1.90;;;;;;;17.15;41.83;95272.47;5009044;28;20033;-80
2022/09/19 10:25:52;;;;;;;5.22;2.00;;;;;;;17.30;40.57;95265.88;5007223;28;20489;-80
2022/09/19 10:28:30;;;;;;;3.88;1.50;;;;;;;17.57;38.36;95265.63;5009495;28;20036;-80
2022/09/19 10:31:00;;;;;;;5.07;1.80;;;;;;;17.50;37.72;95262.13;5007233;28;20033;-80
2022/09/19 10:33:42;;;;;;;3.83;1.58;;;;;;;17.72;37.09;95258.97;4991909;28;20048;-80
2022/09/19 10:36:20;;;;;;;7.47;2.00;;;;;;;17.88;37.87;95247.50;5008205;28;20057;-80
2022/09/19 10:38:53;;;;;;;4.97;1.80;;;;;;;17.79;37.32;95249.72;5006206;28;20472;-80
2022/09/19 10:41:20;;;;;;;6.32;2.10;;;;;;;17.58;37.63;95248.28;5024995;28;20542;-80
2022/09/19 10:43:50;;;;;;;4.72;2.10;;;;;;;17.90;38.99;95245.41;5022634;28;20095;-80
2022/09/19 10:46:18;;;;;;;10.40;1.85;;;;;;;18.08;39.63;95243.72;4991861;28;20029;-80
2022/09/19 10:48:52;;;;;;;6.85;1.65;;;;;;;17.90;36.84;95234.56;5007391;28;20030;-81
2022/09/19 10:51:18;;;;;;;4.05;1.70;;;;;;;18.19;36.29;95231.28;5023491;28;20041;-80
2022/09/19 10:53:45;;;;;;;6.15;2.03;;;;;;;18.25;35.98;95224.91;5026164;28;20026;-79
2022/09/19 10:56:24;;;;;;;3.70;1.67;;;;;;;18.33;37.46;95229.19;5006419;28;20044;-79
2022/09/19 10:58:53;;;;;;;4.80;1.58;;;;;;;18.41;37.79;95219.88;5008469;28;20033;-80
2022/09/19 11:01:23;;;;;;;4.93;1.67;;;;;;;18.64;34.77;95210.97;5007269;28;20496;-80
2022/09/19 11:04:05;;;;;;;6.72;1.55;;;;;;;18.64;34.05;95208.25;5007628;28;20032;-80
2022/09/19 11:06:32;;;;;;;2.55;1.15;;;;;;;18.22;35.20;95206.38;5024685;28;20430;-80
2022/09/19 11:08:57;;;;;;;3.03;1.40;;;;;;;18.43;32.92;95200.69;5006134;28;20026;-80
2022/09/19 11:11:37;;;;;;;4.20;1.38;;;;;;;18.57;33.51;95188.50;4991845;28;20050;-80
2022/09/19 11:14:31;;;;;;;3.30;1.40;;;;;;;18.59;34.87;95188.28;5022101;28;20022;-80
2022/09/19 11:17:08;;;;;;;5.15;1.45;;;;;;;18.68;33.68;95186.91;5008464;28;20030;-80
2022/09/19 11:19:52;;;;;;;5.07;1.35;;;;;;;18.72;33.36;95173.66;5025812;28;20315;-80
2022/09/19 11:22:26;;;;;;;3.50;1.00;;;;;;;18.73;32.75;95175.31;5023765;28;20041;-80
2022/09/19 11:25:16;;;;;;;3.67;1.00;;;;;;;18.92;33.02;95175.19;5027842;28;20519;-80
2022/09/19 11:27:51;;;;;;;3.33;1.02;;;;;;;18.84;29.02;95174.50;5028743;28;20052;-80
2022/09/19 11:30:19;;;;;;;3.83;1.02;;;;;;;18.54;28.89;95167.25;5026621;28;20100;-80
2022/09/19 11:33:13;;;;;;;4.32;0.98;;;;;;;18.55;30.88;95163.50;4995128;28;20025;-80
2022/09/19 11:35:44;;;;;;;3.88;1.20;;;;;;;19.00;32.89;95155.84;5026845;28;20190;-80
2022/09/19 11:38:32;;;;;;;4.47;1.27;;;;;;;19.27;31.59;95163.50;5028788;28;20090;-80
2022/09/19 11:41:20;;;;;;;2.53;0.70;;;;;;;19.33;24.71;95153.59;5027266;28;20038;-80
2022/09/19 11:44:18;;;;;;;4.40;0.60;;;;;;;19.15;22.85;95150.75;5025772;28;20076;-78
2022/09/19 11:46:57;;;;;;;6.55;0.82;;;;;;;19.29;23.68;95150.50;5012652;28;20040;-79
2022/09/19 11:50:01;;;;;;;3.15;0.60;;;;;;;19.30;24.86;95146.72;5010662;28;20029;-79
2022/09/19 11:52:34;;;;;;;4.63;0.70;;;;;;;19.39;24.16;95149.91;5015139;28;20523;-79
2022/09/19 11:55:37;;;;;;;6.25;0.75;;;;;;;19.74;21.43;95150.84;5028015;28;20465;-78
2022/09/19 11:58:22;;;;;;;9.25;0.85;;;;;;;19.66;22.00;95143.06;5026901;28;20032;-81
2022/09/19 12:01:26;;;;;;;6.60;0.75;;;;;;;19.69;21.21;95137.97;5010409;28;20506;-78
2022/09/19 12:04:10;;;;;;;2.45;0.60;;;;;;;19.84;21.61;95139.34;5027747;28;20481;-81
2022/09/19 12:07:14;;;;;;;6.35;0.70;;;;;;;19.96;20.98;95120.22;5027715;28;20030;-78
2022/09/19 12:09:43;;;;;;;6.05;0.98;;;;;;;20.03;21.42;95109.22;5025833;28;20164;-79
2022/09/19 12:12:21;;;;;;;6.50;0.95;;;;;;;20.26;22.43;95108.28;5011430;28;20030;-80